createdAt,value
2018-03-09T00:00:44.797Z,50.90
2018-03-09T00:03:23.318Z,53.40
2018-03-09T00:06:00.935Z,53.30
2018-03-09T00:08:39.292Z,50.40
2018-03-09T00:11:17.883Z,53.60
2018-03-09T00:13:59.483Z,52.00
2018-03-09T00:16:37.919Z,52.00
2018-03-09T00:19:16.271Z,50.40
2018-03-09T00:21:56.800Z,51.70
2018-03-09T00:24:36.522Z,51.10
2018-03-09T00:27:15.062Z,52.30
2018-03-09T00:29:53.623Z,53.60
2018-03-09T00:32:33.450Z,54.50
2018-03-09T00:35:15.957Z,55.10
2018-03-09T00:37:56.411Z,53.50
2018-03-09T00:40:35.815Z,54.00
2018-03-09T00:43:14.781Z,54.70
2018-03-09T00:45:53.763Z,54.20
2018-03-09T00:48:34.991Z,54.50
2018-03-09T00:51:22.476Z,54.20
2018-03-09T00:54:00.922Z,55.10
2018-03-09T00:56:39.587Z,54.10
2018-03-09T00:59:19.165Z,53.20
2018-03-09T01:01:57.861Z,53.20
2018-03-09T01:07:20.060Z,53.60
2018-03-09T01:09:58.694Z,54.10
2018-03-09T01:12:42.178Z,54.20
2018-03-09T01:15:20.856Z,54.00
2018-03-09T01:18:01.419Z,53.60
2018-03-09T01:20:42.022Z,53.40
2018-03-09T01:23:20.443Z,53.10
2018-03-09T01:25:59.167Z,53.10
2018-03-09T01:28:40.612Z,53.50
2018-03-09T01:31:19.026Z,55.20
2018-03-09T01:33:57.648Z,54.00
2018-03-09T01:36:36.218Z,54.90
2018-03-09T01:39:14.865Z,54.90
2018-03-09T01:41:55.597Z,56.40
2018-03-09T01:44:35.156Z,56.30
2018-03-09T01:47:14.716Z,58.20
2018-03-09T01:49:53.128Z,59.50
2018-03-09T01:52:43.708Z,61.90
2018-03-09T01:55:24.374Z,61.80
2018-03-09T01:58:02.842Z,63.30
2018-03-09T02:00:43.904Z,65.20
2018-03-09T02:03:27.768Z,66.20
2018-03-09T02:06:06.779Z,66.40
2018-03-09T02:08:47.015Z,68.20
2018-03-09T02:11:30.567Z,68.70
2018-03-09T02:14:11.267Z,69.10
2018-03-09T02:16:41.753Z,70.00
2018-03-09T02:19:12.728Z,71.30
2018-03-09T02:21:42.431Z,72.20
2018-03-09T02:24:12.286Z,72.80
2018-03-09T02:26:41.705Z,73.00
2018-03-09T02:29:10.758Z,73.30
2018-03-09T02:31:40.945Z,74.30
2018-03-09T02:34:11.226Z,75.40
2018-03-09T02:36:40.836Z,75.50
2018-03-09T02:39:10.572Z,75.50
2018-03-09T02:41:39.972Z,75.70
2018-03-09T02:44:09.431Z,75.60
2018-03-09T02:46:39.667Z,76.50
2018-03-09T02:49:09.352Z,76.00
2018-03-09T02:51:38.187Z,76.40
2018-03-09T02:54:08.427Z,76.00
2018-03-09T02:56:38.428Z,76.60
2018-03-09T02:59:07.782Z,76.90
2018-03-09T03:01:38.790Z,77.60
2018-03-09T03:04:10.643Z,78.40
2018-03-09T03:06:42.892Z,77.80
2018-03-09T03:09:12.705Z,77.50
2018-03-09T03:11:42.980Z,77.00
2018-03-09T03:14:15.038Z,77.00
2018-03-09T03:16:45.190Z,77.00
2018-03-09T03:19:16.407Z,77.30
2018-03-09T03:21:47.116Z,77.00
2018-03-09T03:24:16.372Z,77.00
2018-03-09T03:26:45.889Z,77.10
2018-03-09T03:29:15.592Z,77.70
2018-03-09T03:31:45.471Z,78.00
2018-03-09T03:34:14.796Z,78.40
2018-03-09T03:36:44.703Z,78.30
2018-03-09T03:39:15.241Z,79.40
2018-03-09T03:41:44.880Z,78.60
2018-03-09T03:44:14.270Z,80.10
2018-03-09T03:46:43.579Z,80.50
2018-03-09T03:49:13.291Z,81.30
2018-03-09T03:51:43.167Z,81.50
2018-03-09T03:54:12.981Z,81.50
2018-03-09T03:56:42.706Z,81.50
2018-03-09T03:59:12.692Z,81.50
2018-03-09T04:01:43.079Z,81.40
2018-03-09T04:04:12.822Z,81.60
2018-03-09T04:06:43.048Z,81.90
2018-03-09T04:09:13.605Z,81.80
2018-03-09T04:11:43.317Z,81.90
2018-03-09T04:14:12.596Z,82.00
2018-03-09T04:16:42.279Z,82.30
2018-03-09T04:19:11.637Z,82.30
2018-03-09T04:21:41.067Z,82.00
2018-03-09T04:24:12.719Z,82.00
2018-03-09T04:26:43.265Z,82.70
2018-03-09T04:29:12.564Z,82.60
2018-03-09T04:31:41.731Z,82.80
2018-03-09T04:34:11.629Z,83.00
2018-03-09T04:36:40.878Z,82.80
2018-03-09T04:39:10.228Z,83.00
2018-03-09T04:41:40.080Z,83.00
2018-03-09T04:44:09.490Z,82.80
2018-03-09T04:46:39.903Z,82.70
2018-03-09T04:49:09.246Z,82.60
2018-03-09T04:51:39.156Z,81.90
2018-03-09T04:54:08.438Z,81.60
2018-03-09T04:56:37.576Z,80.40
2018-03-09T04:59:07.103Z,80.30
2018-03-09T05:01:36.581Z,79.20
2018-03-09T05:04:06.221Z,79.10
2018-03-09T05:06:35.686Z,78.50
2018-03-09T05:09:05.578Z,78.40
2018-03-09T05:11:35.035Z,78.30
2018-03-09T05:14:05.003Z,78.60
2018-03-09T05:16:36.563Z,78.40
2018-03-09T05:19:06.685Z,78.40
2018-03-09T05:21:36.064Z,77.50
2018-03-09T05:24:05.297Z,77.50
2018-03-09T05:26:34.637Z,77.80
2018-03-09T05:29:04.550Z,77.50
2018-03-09T05:31:34.771Z,77.50
2018-03-09T05:34:05.949Z,77.70
2018-03-09T05:36:35.269Z,77.60
2018-03-09T05:39:04.861Z,78.00
2018-03-09T05:41:35.360Z,78.70
2018-03-09T05:44:04.519Z,78.70
2018-03-09T05:46:33.957Z,79.10
2018-03-09T05:49:04.472Z,80.60
2018-03-09T05:51:34.754Z,80.20
2018-03-09T05:54:04.584Z,80.20
2018-03-09T05:56:34.138Z,80.30
2018-03-09T05:59:03.833Z,80.60
2018-03-09T06:01:33.908Z,81.00
2018-03-09T06:04:03.885Z,81.10
2018-03-09T06:06:33.894Z,81.20
2018-03-09T06:09:03.588Z,81.50
2018-03-09T06:11:33.862Z,82.30
2018-03-09T06:14:03.201Z,82.40
2018-03-09T06:16:33.460Z,83.10
2018-03-09T06:19:03.026Z,83.10
2018-03-09T06:21:33.063Z,83.20
2018-03-09T06:24:03.438Z,84.20
2018-03-09T06:26:33.348Z,84.10
2018-03-09T06:29:02.841Z,84.10
2018-03-09T06:31:31.961Z,84.10
2018-03-09T06:34:01.654Z,84.30
2018-03-09T06:36:30.940Z,84.30
2018-03-09T06:39:00.983Z,84.40
2018-03-09T06:41:31.103Z,84.70
2018-03-09T06:44:00.302Z,84.70
2018-03-09T06:46:30.036Z,84.10
2018-03-09T06:48:59.970Z,84.30
2018-03-09T06:51:29.625Z,84.30
2018-03-09T06:54:00.105Z,84.60
2018-03-09T06:56:30.471Z,84.50
2018-03-09T06:58:59.761Z,84.60
2018-03-09T07:01:29.276Z,84.70
2018-03-09T07:03:58.974Z,84.70
2018-03-09T07:06:28.471Z,85.00
2018-03-09T07:08:57.814Z,84.50
2018-03-09T07:11:28.104Z,84.40
2018-03-09T07:13:57.575Z,84.20
2018-03-09T07:16:26.950Z,84.20
2018-03-09T07:18:56.098Z,84.20
2018-03-09T07:21:25.772Z,84.20
2018-03-09T07:23:55.277Z,83.70
2018-03-09T07:26:24.542Z,83.70
2018-03-09T07:28:54.056Z,83.90
2018-03-09T07:31:23.845Z,83.70
2018-03-09T07:33:54.117Z,83.50
2018-03-09T07:36:23.411Z,83.60
2018-03-09T07:38:52.522Z,83.50
2018-03-09T07:41:23.028Z,83.60
2018-03-09T07:43:52.771Z,83.60
2018-03-09T07:46:22.346Z,83.40
2018-03-09T07:48:52.155Z,83.60
2018-03-09T07:51:21.476Z,83.40
2018-03-09T07:53:51.308Z,83.70
2018-03-09T07:56:21.083Z,84.10
2018-03-09T07:58:50.413Z,83.80
2018-03-09T08:01:20.324Z,84.10
2018-03-09T08:03:49.930Z,84.30
2018-03-09T08:06:19.583Z,83.30
2018-03-09T08:08:49.076Z,83.60
2018-03-09T08:11:19.822Z,83.70
2018-03-09T08:13:50.186Z,83.50
2018-03-09T08:16:19.716Z,83.80
2018-03-09T08:18:49.511Z,83.40
2018-03-09T08:21:19.403Z,83.60
2018-03-09T08:23:49.229Z,83.00
2018-03-09T08:26:19.455Z,83.50
2018-03-09T08:28:49.142Z,83.90
2018-03-09T08:31:18.573Z,83.40
2018-03-09T08:33:47.958Z,83.10
2018-03-09T08:36:17.332Z,82.80
2018-03-09T08:38:47.606Z,83.40
2018-03-09T08:41:17.363Z,83.10
2018-03-09T08:43:47.987Z,81.90
2018-03-09T08:46:17.507Z,81.90
2018-03-09T08:48:47.535Z,81.90
2018-03-09T08:51:16.647Z,81.80
2018-03-09T08:53:46.240Z,81.30
2018-03-09T08:56:15.430Z,81.20
2018-03-09T08:58:44.963Z,81.00
2018-03-09T09:01:14.358Z,80.50
2018-03-09T09:03:43.444Z,80.60
2018-03-09T09:06:13.332Z,80.80
2018-03-09T09:08:42.882Z,80.60
2018-03-09T09:11:12.395Z,80.80
2018-03-09T09:13:41.730Z,80.50
2018-03-09T09:16:11.966Z,80.80
2018-03-09T09:18:41.683Z,80.90
2018-03-09T09:21:11.199Z,81.30
2018-03-09T09:23:41.395Z,81.70
2018-03-09T09:26:10.920Z,81.50
2018-03-09T09:28:40.389Z,81.70
2018-03-09T09:31:10.504Z,82.00
2018-03-09T09:33:39.806Z,82.10
2018-03-09T09:36:09.360Z,82.20
2018-03-09T09:38:38.609Z,82.40
2018-03-09T09:41:08.991Z,81.00
2018-03-09T09:43:38.552Z,80.80
2018-03-09T09:46:08.254Z,81.00
2018-03-09T09:48:37.593Z,81.30
2018-03-09T09:51:07.090Z,81.10
2018-03-09T09:53:36.377Z,80.60
2018-03-09T09:56:05.969Z,80.60
2018-03-09T09:58:35.456Z,80.60
2018-03-09T10:01:05.716Z,80.90
2018-03-09T10:03:35.089Z,81.50
2018-03-09T10:06:04.407Z,81.80
2018-03-09T10:08:33.983Z,81.80
2018-03-09T10:11:03.550Z,81.90
2018-03-09T10:13:33.052Z,82.00
2018-03-09T10:16:02.499Z,81.60
2018-03-09T10:18:32.749Z,81.40
2018-03-09T10:21:01.899Z,81.30
2018-03-09T10:23:31.344Z,81.70
2018-03-09T10:26:01.005Z,81.80
2018-03-09T10:28:30.512Z,81.90
2018-03-09T10:31:00.649Z,82.20
2018-03-09T10:33:29.795Z,82.70
2018-03-09T10:35:59.115Z,83.20
2018-03-09T10:38:28.606Z,83.60
2018-03-09T10:40:57.881Z,83.70
2018-03-09T10:43:27.010Z,83.30
2018-03-09T10:45:56.440Z,83.40
2018-03-09T10:48:25.826Z,83.40
2018-03-09T10:50:55.457Z,83.60
2018-03-09T10:53:24.942Z,83.50
2018-03-09T10:55:55.886Z,84.00
2018-03-09T10:58:25.256Z,84.00
2018-03-09T11:00:54.723Z,84.20
2018-03-09T11:03:24.441Z,84.10
2018-03-09T11:05:53.588Z,84.40
2018-03-09T11:08:22.992Z,84.80
2018-03-09T11:10:53.745Z,85.50
2018-03-09T11:13:23.037Z,85.50
2018-03-09T11:15:52.796Z,85.20
2018-03-09T11:18:23.145Z,85.00
2018-03-09T11:20:52.584Z,84.60
2018-03-09T11:23:22.304Z,84.40
2018-03-09T11:25:51.383Z,84.40
2018-03-09T11:28:20.706Z,84.20
2018-03-09T11:30:50.145Z,83.80
2018-03-09T11:33:19.901Z,83.70
2018-03-09T11:35:49.388Z,83.50
2018-03-09T11:38:18.715Z,83.30
2018-03-09T11:40:47.993Z,83.10
2018-03-09T11:43:17.339Z,83.20
2018-03-09T11:45:46.631Z,83.20
2018-03-09T11:48:15.816Z,83.20
2018-03-09T11:50:45.709Z,83.70
2018-03-09T11:53:15.630Z,84.50
2018-03-09T11:55:47.217Z,84.80
2018-03-09T11:58:17.421Z,85.20
2018-03-09T12:00:46.906Z,85.10
2018-03-09T12:03:16.612Z,84.80
2018-03-09T12:05:45.883Z,84.80
2018-03-09T12:08:15.542Z,84.40
2018-03-09T12:10:44.854Z,84.00
2018-03-09T12:13:14.149Z,83.60
2018-03-09T12:15:43.642Z,83.30
2018-03-09T12:18:12.956Z,82.70
2018-03-09T12:20:42.062Z,82.00
2018-03-09T12:23:11.378Z,82.20
2018-03-09T12:25:41.020Z,81.90
2018-03-09T12:28:10.376Z,81.90
2018-03-09T12:30:40.040Z,82.30
2018-03-09T12:33:10.064Z,81.50
2018-03-09T12:35:39.374Z,81.30
2018-03-09T12:38:08.885Z,81.60
2018-03-09T12:40:38.159Z,81.10
2018-03-09T12:43:07.424Z,80.60
2018-03-09T12:45:36.956Z,80.60
2018-03-09T12:48:07.270Z,80.70
2018-03-09T12:50:37.029Z,80.60
2018-03-09T12:53:06.545Z,79.70
2018-03-09T12:55:36.481Z,79.20
2018-03-09T12:58:06.152Z,79.80
2018-03-09T13:00:36.863Z,80.70
2018-03-09T13:03:06.222Z,80.70
2018-03-09T13:05:36.083Z,81.50
2018-03-09T13:08:05.379Z,81.30
2018-03-09T13:10:35.679Z,81.80
2018-03-09T13:13:06.950Z,82.60
2018-03-09T13:15:37.252Z,83.70
2018-03-09T13:18:07.828Z,85.10
2018-03-09T13:20:37.343Z,84.90
2018-03-09T13:23:07.671Z,85.60
2018-03-09T13:25:36.926Z,85.50
2018-03-09T13:28:07.068Z,86.20
2018-03-09T13:30:36.502Z,86.20
2018-03-09T13:33:06.107Z,86.10
2018-03-09T13:35:35.408Z,86.20
2018-03-09T13:38:05.691Z,86.10
2018-03-09T13:40:35.766Z,86.10
2018-03-09T13:43:06.027Z,86.10
2018-03-09T13:45:35.276Z,86.00
2018-03-09T13:48:04.883Z,86.10
2018-03-09T13:50:35.484Z,85.80
2018-03-09T13:53:04.988Z,85.50
2018-03-09T13:55:34.253Z,85.60
2018-03-09T13:58:03.564Z,85.20
2018-03-09T14:00:33.232Z,85.00
2018-03-09T14:03:03.107Z,84.40
2018-03-09T14:05:32.483Z,84.20
2018-03-09T14:08:02.123Z,84.40
2018-03-09T14:10:31.479Z,84.50
2018-03-09T14:13:01.091Z,84.30
2018-03-09T14:15:30.852Z,83.80
2018-03-09T14:18:01.964Z,83.70
2018-03-09T14:20:31.525Z,83.40
2018-03-09T14:23:01.203Z,83.80
2018-03-09T14:25:30.383Z,83.90
2018-03-09T14:27:59.717Z,83.90
2018-03-09T14:30:29.236Z,83.80
2018-03-09T14:32:58.528Z,83.20
2018-03-09T14:35:27.688Z,82.50
2018-03-09T14:37:56.897Z,81.30
2018-03-09T14:40:26.597Z,81.40
2018-03-09T14:42:56.093Z,81.40
2018-03-09T14:45:26.131Z,80.20
2018-03-09T14:47:55.511Z,80.30
2018-03-09T14:50:24.945Z,80.30
2018-03-09T14:52:54.704Z,80.40
2018-03-09T14:55:23.943Z,79.80
2018-03-09T14:57:53.472Z,79.40
2018-03-09T15:00:23.750Z,78.90
2018-03-09T15:02:53.255Z,78.80
2018-03-09T15:05:22.893Z,79.00
2018-03-09T15:07:52.595Z,79.00
2018-03-09T15:10:23.633Z,78.50
2018-03-09T15:12:53.130Z,78.30
2018-03-09T15:15:22.260Z,77.50
2018-03-09T15:17:51.343Z,75.50
2018-03-09T15:20:20.483Z,76.20
2018-03-09T15:22:50.401Z,75.10
2018-03-09T15:25:19.451Z,75.10
2018-03-09T15:27:48.820Z,74.70
2018-03-09T15:30:24.772Z,75.30
2018-03-09T15:32:56.879Z,75.60
2018-03-09T15:35:28.239Z,76.30
2018-03-09T15:38:03.434Z,76.00
2018-03-09T15:40:32.797Z,74.70
2018-03-09T15:43:02.300Z,75.30
2018-03-09T15:45:31.759Z,74.80
2018-03-09T15:48:00.969Z,74.60
2018-03-09T15:50:30.306Z,74.40
2018-03-09T15:52:59.989Z,73.80
2018-03-09T15:55:29.319Z,70.70
2018-03-09T15:57:59.193Z,67.50
2018-03-09T16:00:29.586Z,69.20
2018-03-09T16:03:00.107Z,61.20
2018-03-09T16:05:30.630Z,60.60
2018-03-09T16:08:00.092Z,60.70
2018-03-09T16:10:30.087Z,60.00
2018-03-09T16:12:59.795Z,60.20
2018-03-09T16:15:30.018Z,51.10
2018-03-09T16:17:59.521Z,41.60
2018-03-09T16:20:28.804Z,39.00
2018-03-09T16:22:57.946Z,37.10
2018-03-09T16:25:28.071Z,35.60
2018-03-09T16:27:58.779Z,32.10
2018-03-09T16:30:28.349Z,25.90
2018-03-09T16:32:58.877Z,22.80
2018-03-09T16:35:28.753Z,22.50
2018-03-09T16:37:58.011Z,22.40
2018-03-09T16:40:27.321Z,21.20
2018-03-09T16:42:56.419Z,23.70
2018-03-09T16:45:26.134Z,23.20
2018-03-09T16:47:55.985Z,23.20
2018-03-09T16:50:26.168Z,24.20
2018-03-09T16:52:55.260Z,24.20
2018-03-09T16:55:25.321Z,28.00
2018-03-09T16:57:54.883Z,27.90
2018-03-09T17:00:24.156Z,30.20
2018-03-09T17:02:53.498Z,30.00
2018-03-09T17:05:22.750Z,31.10
2018-03-09T17:07:52.068Z,27.50
2018-03-09T17:10:21.766Z,31.50
2018-03-09T17:12:51.105Z,26.50
2018-03-09T17:15:20.579Z,23.50
2018-03-09T17:17:49.948Z,24.80
2018-03-09T17:20:20.388Z,21.50
2018-03-09T17:22:49.525Z,21.40
2018-03-09T17:25:19.017Z,20.40
2018-03-09T17:27:48.084Z,24.30
2018-03-09T17:30:17.595Z,23.70
2018-03-09T17:32:47.116Z,21.10
2018-03-09T17:35:16.857Z,20.60
2018-03-09T17:37:47.642Z,22.50
2018-03-09T17:40:16.959Z,22.50
2018-03-09T17:42:46.235Z,20.50
2018-03-09T17:45:15.564Z,22.90
2018-03-09T17:47:44.666Z,23.80
2018-03-09T17:50:13.970Z,22.70
2018-03-09T17:52:43.254Z,20.80
2018-03-09T17:55:12.563Z,20.70
2018-03-09T17:57:42.263Z,23.70
2018-03-09T18:00:11.405Z,22.60
2018-03-09T18:02:41.966Z,22.70
2018-03-09T18:05:11.600Z,22.70
2018-03-09T18:07:40.720Z,21.30
2018-03-09T18:10:10.400Z,23.40
2018-03-09T18:12:39.775Z,24.80
2018-03-09T18:15:09.356Z,20.10
2018-03-09T18:17:39.183Z,19.60
2018-03-09T18:20:08.904Z,19.60
2018-03-09T18:22:38.252Z,17.90
2018-03-09T18:25:07.537Z,18.90
2018-03-09T18:27:36.852Z,18.70
2018-03-09T18:30:06.508Z,18.80
2018-03-09T18:32:35.842Z,19.00
2018-03-09T18:35:05.592Z,20.50
2018-03-09T18:37:35.673Z,17.60
2018-03-09T18:40:05.182Z,17.60
2018-03-09T18:42:34.705Z,19.60
2018-03-09T18:45:03.929Z,21.20
2018-03-09T18:47:33.247Z,22.30
2018-03-09T18:50:02.403Z,21.00
2018-03-09T18:52:31.876Z,22.20
2018-03-09T18:55:01.248Z,23.20
2018-03-09T18:57:31.200Z,20.30
2018-03-09T19:00:01.799Z,20.40
2018-03-09T19:02:31.821Z,21.00
2018-03-09T19:05:02.550Z,20.20
2018-03-09T19:07:31.849Z,21.10
2018-03-09T19:10:01.172Z,24.90
2018-03-09T19:12:30.469Z,19.70
2018-03-09T19:14:59.971Z,17.60
2018-03-09T19:17:29.532Z,17.90
2018-03-09T19:19:58.885Z,18.20
2018-03-09T19:22:28.537Z,17.60
2018-03-09T19:24:58.064Z,22.60
2018-03-09T19:27:27.483Z,21.10
2018-03-09T19:29:56.868Z,16.20
2018-03-09T19:32:26.491Z,19.20
2018-03-09T19:34:55.829Z,17.30
2018-03-09T19:37:25.470Z,17.60
2018-03-09T19:39:54.789Z,19.00
2018-03-09T19:42:24.678Z,16.80
2018-03-09T19:44:54.183Z,16.30
2018-03-09T19:47:23.520Z,18.80
2018-03-09T19:49:52.827Z,17.60
2018-03-09T19:52:23.103Z,18.80
2018-03-09T19:54:52.374Z,17.00
2018-03-09T19:57:21.701Z,20.80
2018-03-09T19:59:50.971Z,19.00
2018-03-09T20:02:20.476Z,20.00
2018-03-09T20:04:49.823Z,20.70
2018-03-09T20:07:19.305Z,20.00
2018-03-09T20:09:49.038Z,20.60
2018-03-09T20:12:18.290Z,20.90
2018-03-09T20:14:47.644Z,19.60
2018-03-09T20:17:16.905Z,18.40
2018-03-09T20:19:46.268Z,20.80
2018-03-09T20:22:15.755Z,18.80
2018-03-09T20:24:45.018Z,22.00
2018-03-09T20:27:14.320Z,20.10
2018-03-09T20:29:43.628Z,21.40
2018-03-09T20:32:13.153Z,18.90
2018-03-09T20:34:43.366Z,21.30
2018-03-09T20:37:12.609Z,19.20
2018-03-09T20:39:42.857Z,22.40
2018-03-09T20:42:12.951Z,22.40
2018-03-09T20:44:43.406Z,19.30
2018-03-09T20:47:13.136Z,19.30
2018-03-09T20:49:42.508Z,18.90
2018-03-09T20:52:12.534Z,23.20
2018-03-09T20:54:41.960Z,23.30
2018-03-09T20:57:11.231Z,25.20
2018-03-09T20:59:40.961Z,21.40
2018-03-09T21:02:10.267Z,21.60
2018-03-09T21:04:39.457Z,22.50
2018-03-09T21:07:08.924Z,23.20
2018-03-09T21:09:38.469Z,20.80
2018-03-09T21:12:07.766Z,21.20
2018-03-09T21:14:36.846Z,21.50
2018-03-09T21:17:06.927Z,23.70
2018-03-09T21:19:37.080Z,23.90
2018-03-09T21:22:06.649Z,25.60
2018-03-09T21:24:36.068Z,24.00
2018-03-09T21:27:05.578Z,24.50
2018-03-09T21:29:34.845Z,22.80
2018-03-09T21:32:04.214Z,20.60
2018-03-09T21:34:33.509Z,21.50
2018-03-09T21:37:02.966Z,21.70
2018-03-09T21:39:32.310Z,21.40
2018-03-09T21:42:02.889Z,20.90
2018-03-09T21:44:33.485Z,21.50
2018-03-09T21:47:02.883Z,21.50
2018-03-09T21:49:32.699Z,20.00
2018-03-09T21:52:03.057Z,19.60
2018-03-09T21:54:32.596Z,17.90
2018-03-09T21:57:02.356Z,19.10
2018-03-09T21:59:32.582Z,19.70
2018-03-09T22:02:03.528Z,19.00
2018-03-09T22:04:33.627Z,20.80
2018-03-09T22:07:02.940Z,21.20
2018-03-09T22:09:33.049Z,21.60
2018-03-09T22:12:02.269Z,20.40
2018-03-09T22:14:32.586Z,22.80
2018-03-09T22:17:01.908Z,22.70
2018-03-09T22:19:31.533Z,23.30
2018-03-09T22:22:03.363Z,20.50
2018-03-09T22:24:33.093Z,22.60
2018-03-09T22:27:02.385Z,20.40
2018-03-09T22:29:31.708Z,23.10
2018-03-09T22:32:00.831Z,21.80
2018-03-09T22:34:30.255Z,24.20
2018-03-09T22:36:59.582Z,21.40
2018-03-09T22:39:29.118Z,23.70
2018-03-09T22:41:58.387Z,20.50
2018-03-09T22:44:27.698Z,20.40
2018-03-09T22:46:56.957Z,19.70
2018-03-09T22:49:27.008Z,20.70
2018-03-09T22:51:56.372Z,20.50
2018-03-09T22:54:25.686Z,21.40
2018-03-09T22:56:54.993Z,23.10
2018-03-09T22:59:24.486Z,22.10
2018-03-09T23:01:53.849Z,23.80
2018-03-09T23:04:23.052Z,22.40
2018-03-09T23:06:52.172Z,22.10
2018-03-09T23:09:21.679Z,26.60
2018-03-09T23:11:51.037Z,21.20
2018-03-09T23:14:20.809Z,21.50
2018-03-09T23:16:50.322Z,21.10
2018-03-09T23:19:19.660Z,22.00
2018-03-09T23:21:49.307Z,22.80
2018-03-09T23:24:18.634Z,23.60
2018-03-09T23:26:48.187Z,25.00
2018-03-09T23:29:17.656Z,26.20
2018-03-09T23:31:47.116Z,24.30
2018-03-09T23:34:17.799Z,23.60
2018-03-09T23:36:47.365Z,25.80
2018-03-09T23:39:16.954Z,28.50
2018-03-09T23:41:46.104Z,28.90
2018-03-09T23:44:15.212Z,22.40
2018-03-09T23:46:45.308Z,24.90
2018-03-09T23:49:14.587Z,24.80
2018-03-09T23:51:44.311Z,23.70
2018-03-09T23:54:13.631Z,25.30
2018-03-09T23:56:43.083Z,26.90
2018-03-09T23:59:13.118Z,25.80
